sensor_id;sensor_type;location;lat;lon;timestamp;P1;durP1;ratioP1;P2;durP2;ratioP2
24337;SDS011;12457;50.832;4.346;2022-07-24T00:00:21;43.30;;;33.33;;
24337;SDS011;12457;50.832;4.346;2022-07-24T00:02:47;49.35;;;35.45;;
24337;SDS011;12457;50.832;4.346;2022-07-24T00:05:13;53.38;;;36.53;;
24337;SDS011;12457;50.832;4.346;2022-07-24T00:07:38;55.20;;;37.08;;
24337;SDS011;12457;50.832;4.346;2022-07-24T00:10:04;51.60;;;36.17;;
24337;SDS011;12457;50.832;4.346;2022-07-24T00:12:31;57.10;;;38.78;;
24337;SDS011;12457;50.832;4.346;2022-07-24T00:14:57;59.85;;;40.00;;
24337;SDS011;12457;50.832;4.346;2022-07-24T00:17:22;58.65;;;38.28;;
24337;SDS011;12457;50.832;4.346;2022-07-24T00:19:48;58.80;;;38.20;;
24337;SDS011;12457;50.832;4.346;2022-07-24T00:22:14;59.05;;;38.38;;
24337;SDS011;12457;50.832;4.346;2022-07-24T00:24:40;51.85;;;38.90;;
24337;SDS011;12457;50.832;4.346;2022-07-24T00:27:05;55.70;;;37.90;;
24337;SDS011;12457;50.832;4.346;2022-07-24T00:29:31;48.67;;;34.33;;
24337;SDS011;12457;50.832;4.346;2022-07-24T00:31:58;49.67;;;34.80;;
24337;SDS011;12457;50.832;4.346;2022-07-24T00:34:24;48.25;;;35.35;;
24337;SDS011;12457;50.832;4.346;2022-07-24T00:36:49;48.00;;;34.03;;
24337;SDS011;12457;50.832;4.346;2022-07-24T00:39:15;47.95;;;34.08;;
24337;SDS011;12457;50.832;4.346;2022-07-24T00:41:41;49.08;;;35.38;;
24337;SDS011;12457;50.832;4.346;2022-07-24T00:44:11;49.30;;;35.20;;
24337;SDS011;12457;50.832;4.346;2022-07-24T00:46:39;41.25;;;33.15;;
24337;SDS011;12457;50.832;4.346;2022-07-24T00:49:06;49.25;;;33.17;;
24337;SDS011;12457;50.832;4.346;2022-07-24T00:51:34;41.17;;;31.80;;
24337;SDS011;12457;50.832;4.346;2022-07-24T00:54:04;43.60;;;32.58;;
24337;SDS011;12457;50.832;4.346;2022-07-24T00:56:32;45.35;;;33.70;;
24337;SDS011;12457;50.832;4.346;2022-07-24T00:58:59;51.85;;;33.88;;
24337;SDS011;12457;50.832;4.346;2022-07-24T01:01:26;44.30;;;33.65;;
24337;SDS011;12457;50.832;4.346;2022-07-24T01:03:52;45.95;;;34.13;;
24337;SDS011;12457;50.832;4.346;2022-07-24T01:06:19;48.08;;;34.80;;
24337;SDS011;12457;50.832;4.346;2022-07-24T01:08:45;48.97;;;35.20;;
24337;SDS011;12457;50.832;4.346;2022-07-24T01:11:11;52.20;;;35.78;;
24337;SDS011;12457;50.832;4.346;2022-07-24T01:13:38;48.58;;;35.83;;
24337;SDS011;12457;50.832;4.346;2022-07-24T01:16:06;44.90;;;36.17;;
24337;SDS011;12457;50.832;4.346;2022-07-24T01:18:32;51.78;;;37.25;;
24337;SDS011;12457;50.832;4.346;2022-07-24T01:20:58;57.75;;;37.38;;
24337;SDS011;12457;50.832;4.346;2022-07-24T01:23:23;50.67;;;36.30;;
24337;SDS011;12457;50.832;4.346;2022-07-24T01:25:50;47.58;;;36.30;;
24337;SDS011;12457;50.832;4.346;2022-07-24T01:28:16;53.17;;;37.85;;
24337;SDS011;12457;50.832;4.346;2022-07-24T01:30:42;50.15;;;36.33;;
24337;SDS011;12457;50.832;4.346;2022-07-24T01:33:08;53.20;;;37.58;;
24337;SDS011;12457;50.832;4.346;2022-07-24T01:35:34;51.13;;;36.67;;
24337;SDS011;12457;50.832;4.346;2022-07-24T01:38:00;59.15;;;36.72;;
24337;SDS011;12457;50.832;4.346;2022-07-24T01:40:26;47.08;;;35.58;;
24337;SDS011;12457;50.832;4.346;2022-07-24T01:42:51;51.60;;;36.55;;
24337;SDS011;12457;50.832;4.346;2022-07-24T01:45:17;48.30;;;36.83;;
24337;SDS011;12457;50.832;4.346;2022-07-24T01:47:44;53.67;;;35.28;;
24337;SDS011;12457;50.832;4.346;2022-07-24T01:50:10;46.58;;;35.10;;
24337;SDS011;12457;50.832;4.346;2022-07-24T01:52:36;50.40;;;34.22;;
24337;SDS011;12457;50.832;4.346;2022-07-24T01:55:03;50.00;;;35.42;;
24337;SDS011;12457;50.832;4.346;2022-07-24T01:57:30;45.75;;;34.45;;
24337;SDS011;12457;50.832;4.346;2022-07-24T01:59:56;44.42;;;34.28;;
24337;SDS011;12457;50.832;4.346;2022-07-24T02:02:22;46.38;;;33.20;;
24337;SDS011;12457;50.832;4.346;2022-07-24T02:04:48;47.35;;;33.70;;
24337;SDS011;12457;50.832;4.346;2022-07-24T02:07:13;55.17;;;34.92;;
24337;SDS011;12457;50.832;4.346;2022-07-24T02:09:39;52.35;;;34.95;;
24337;SDS011;12457;50.832;4.346;2022-07-24T02:12:05;44.67;;;34.13;;
24337;SDS011;12457;50.832;4.346;2022-07-24T02:14:31;42.80;;;34.55;;
24337;SDS011;12457;50.832;4.346;2022-07-24T02:16:57;43.72;;;34.50;;
24337;SDS011;12457;50.832;4.346;2022-07-24T02:19:24;53.08;;;34.85;;
24337;SDS011;12457;50.832;4.346;2022-07-24T02:21:49;47.72;;;33.00;;
24337;SDS011;12457;50.832;4.346;2022-07-24T02:24:15;51.58;;;32.90;;
24337;SDS011;12457;50.832;4.346;2022-07-24T02:26:42;46.40;;;31.95;;
24337;SDS011;12457;50.832;4.346;2022-07-24T02:29:07;49.20;;;30.65;;
24337;SDS011;12457;50.832;4.346;2022-07-24T02:31:33;40.78;;;29.70;;
24337;SDS011;12457;50.832;4.346;2022-07-24T02:33:59;45.65;;;28.77;;
24337;SDS011;12457;50.832;4.346;2022-07-24T02:36:25;39.40;;;28.40;;
24337;SDS011;12457;50.832;4.346;2022-07-24T02:38:51;44.10;;;27.35;;
24337;SDS011;12457;50.832;4.346;2022-07-24T02:41:17;37.40;;;27.08;;
24337;SDS011;12457;50.832;4.346;2022-07-24T02:43:43;35.65;;;24.90;;
24337;SDS011;12457;50.832;4.346;2022-07-24T02:46:08;39.17;;;24.80;;
24337;SDS011;12457;50.832;4.346;2022-07-24T02:48:34;31.75;;;24.27;;
24337;SDS011;12457;50.832;4.346;2022-07-24T02:51:00;38.35;;;24.00;;
24337;SDS011;12457;50.832;4.346;2022-07-24T02:53:25;33.97;;;23.20;;
24337;SDS011;12457;50.832;4.346;2022-07-24T02:55:51;38.58;;;23.15;;
24337;SDS011;12457;50.832;4.346;2022-07-24T02:58:16;33.78;;;22.67;;
24337;SDS011;12457;50.832;4.346;2022-07-24T03:00:42;35.85;;;22.60;;
24337;SDS011;12457;50.832;4.346;2022-07-24T03:03:08;32.92;;;23.23;;
24337;SDS011;12457;50.832;4.346;2022-07-24T03:05:34;38.50;;;24.25;;
24337;SDS011;12457;50.832;4.346;2022-07-24T03:07:59;40.97;;;24.90;;
24337;SDS011;12457;50.832;4.346;2022-07-24T03:10:25;38.33;;;26.67;;
24337;SDS011;12457;50.832;4.346;2022-07-24T03:12:51;38.25;;;27.38;;
24337;SDS011;12457;50.832;4.346;2022-07-24T03:15:16;37.08;;;28.33;;
24337;SDS011;12457;50.832;4.346;2022-07-24T03:17:52;46.78;;;30.85;;
24337;SDS011;12457;50.832;4.346;2022-07-24T03:20:22;46.85;;;29.48;;
24337;SDS011;12457;50.832;4.346;2022-07-24T03:22:50;49.90;;;30.52;;
24337;SDS011;12457;50.832;4.346;2022-07-24T03:25:16;46.53;;;32.15;;
24337;SDS011;12457;50.832;4.346;2022-07-24T03:27:43;48.65;;;30.13;;
24337;SDS011;12457;50.832;4.346;2022-07-24T03:30:09;56.53;;;34.05;;
24337;SDS011;12457;50.832;4.346;2022-07-24T03:32:35;55.15;;;36.83;;
24337;SDS011;12457;50.832;4.346;2022-07-24T03:35:01;59.75;;;41.85;;
24337;SDS011;12457;50.832;4.346;2022-07-24T03:37:28;72.05;;;45.58;;
24337;SDS011;12457;50.832;4.346;2022-07-24T03:39:53;97.93;;;57.00;;
24337;SDS011;12457;50.832;4.346;2022-07-24T03:42:19;111.55;;;63.50;;
24337;SDS011;12457;50.832;4.346;2022-07-24T03:44:45;107.63;;;62.03;;
24337;SDS011;12457;50.832;4.346;2022-07-24T03:47:11;97.43;;;57.85;;
24337;SDS011;12457;50.832;4.346;2022-07-24T03:49:36;92.15;;;58.30;;
24337;SDS011;12457;50.832;4.346;2022-07-24T03:52:02;89.82;;;54.75;;
24337;SDS011;12457;50.832;4.346;2022-07-24T03:54:28;86.65;;;54.97;;
24337;SDS011;12457;50.832;4.346;2022-07-24T03:56:54;83.85;;;52.13;;
24337;SDS011;12457;50.832;4.346;2022-07-24T03:59:21;75.45;;;47.50;;
24337;SDS011;12457;50.832;4.346;2022-07-24T04:01:48;59.20;;;40.13;;
24337;SDS011;12457;50.832;4.346;2022-07-24T04:04:14;52.58;;;33.22;;
24337;SDS011;12457;50.832;4.346;2022-07-24T04:06:39;48.15;;;29.73;;
24337;SDS011;12457;50.832;4.346;2022-07-24T04:09:05;39.60;;;25.00;;
24337;SDS011;12457;50.832;4.346;2022-07-24T04:11:31;37.78;;;22.35;;
24337;SDS011;12457;50.832;4.346;2022-07-24T04:13:57;34.58;;;21.48;;
24337;SDS011;12457;50.832;4.346;2022-07-24T04:16:23;37.67;;;22.33;;
24337;SDS011;12457;50.832;4.346;2022-07-24T04:18:49;29.27;;;20.45;;
24337;SDS011;12457;50.832;4.346;2022-07-24T04:21:15;33.35;;;20.70;;
24337;SDS011;12457;50.832;4.346;2022-07-24T04:23:41;31.95;;;19.08;;
24337;SDS011;12457;50.832;4.346;2022-07-24T04:26:07;30.85;;;18.55;;
24337;SDS011;12457;50.832;4.346;2022-07-24T04:28:33;28.85;;;17.52;;
24337;SDS011;12457;50.832;4.346;2022-07-24T04:30:59;26.77;;;16.48;;
24337;SDS011;12457;50.832;4.346;2022-07-24T04:33:26;24.58;;;16.30;;
24337;SDS011;12457;50.832;4.346;2022-07-24T04:35:51;26.10;;;15.35;;
24337;SDS011;12457;50.832;4.346;2022-07-24T04:38:17;22.38;;;14.52;;
24337;SDS011;12457;50.832;4.346;2022-07-24T04:40:43;24.23;;;13.40;;
24337;SDS011;12457;50.832;4.346;2022-07-24T04:43:09;22.42;;;13.27;;
24337;SDS011;12457;50.832;4.346;2022-07-24T04:45:34;21.33;;;13.80;;
24337;SDS011;12457;50.832;4.346;2022-07-24T04:48:00;22.13;;;13.25;;
24337;SDS011;12457;50.832;4.346;2022-07-24T04:50:26;22.70;;;14.48;;
24337;SDS011;12457;50.832;4.346;2022-07-24T04:52:51;18.35;;;13.13;;
24337;SDS011;12457;50.832;4.346;2022-07-24T04:55:17;20.70;;;11.75;;
24337;SDS011;12457;50.832;4.346;2022-07-24T04:57:42;20.92;;;12.35;;
24337;SDS011;12457;50.832;4.346;2022-07-24T05:00:09;17.17;;;11.32;;
24337;SDS011;12457;50.832;4.346;2022-07-24T05:02:37;17.75;;;11.38;;
24337;SDS011;12457;50.832;4.346;2022-07-24T05:05:03;20.17;;;11.65;;
24337;SDS011;12457;50.832;4.346;2022-07-24T05:07:29;21.23;;;11.48;;
24337;SDS011;12457;50.832;4.346;2022-07-24T05:09:56;17.17;;;10.48;;
24337;SDS011;12457;50.832;4.346;2022-07-24T05:12:23;19.25;;;10.77;;
24337;SDS011;12457;50.832;4.346;2022-07-24T05:14:49;14.82;;;10.18;;
24337;SDS011;12457;50.832;4.346;2022-07-24T05:17:15;14.98;;;10.45;;
24337;SDS011;12457;50.832;4.346;2022-07-24T05:19:41;18.80;;;10.30;;
24337;SDS011;12457;50.832;4.346;2022-07-24T05:22:06;17.58;;;9.88;;
24337;SDS011;12457;50.832;4.346;2022-07-24T05:24:32;16.15;;;9.93;;
24337;SDS011;12457;50.832;4.346;2022-07-24T05:26:58;14.63;;;9.32;;
24337;SDS011;12457;50.832;4.346;2022-07-24T05:29:24;16.13;;;8.57;;
24337;SDS011;12457;50.832;4.346;2022-07-24T05:31:49;12.20;;;7.80;;
24337;SDS011;12457;50.832;4.346;2022-07-24T05:34:16;12.50;;;7.38;;
24337;SDS011;12457;50.832;4.346;2022-07-24T05:36:42;9.18;;;6.25;;
24337;SDS011;12457;50.832;4.346;2022-07-24T05:39:08;11.30;;;5.97;;
24337;SDS011;12457;50.832;4.346;2022-07-24T05:41:34;11.55;;;6.13;;
24337;SDS011;12457;50.832;4.346;2022-07-24T05:44:00;11.85;;;6.35;;
24337;SDS011;12457;50.832;4.346;2022-07-24T05:46:26;13.02;;;6.40;;
24337;SDS011;12457;50.832;4.346;2022-07-24T05:48:52;9.77;;;5.97;;
24337;SDS011;12457;50.832;4.346;2022-07-24T05:51:18;9.88;;;5.40;;
24337;SDS011;12457;50.832;4.346;2022-07-24T05:53:45;8.95;;;5.35;;
24337;SDS011;12457;50.832;4.346;2022-07-24T05:56:10;12.63;;;5.80;;
24337;SDS011;12457;50.832;4.346;2022-07-24T05:58:39;16.73;;;6.18;;
24337;SDS011;12457;50.832;4.346;2022-07-24T06:01:07;14.43;;;6.35;;
24337;SDS011;12457;50.832;4.346;2022-07-24T06:03:33;9.90;;;6.50;;
24337;SDS011;12457;50.832;4.346;2022-07-24T06:06:00;7.13;;;5.68;;
24337;SDS011;12457;50.832;4.346;2022-07-24T06:08:25;7.20;;;5.80;;
24337;SDS011;12457;50.832;4.346;2022-07-24T06:10:53;12.73;;;5.28;;
24337;SDS011;12457;50.832;4.346;2022-07-24T06:13:20;10.38;;;5.30;;
24337;SDS011;12457;50.832;4.346;2022-07-24T06:15:45;6.10;;;4.57;;
24337;SDS011;12457;50.832;4.346;2022-07-24T06:18:11;13.55;;;5.10;;
24337;SDS011;12457;50.832;4.346;2022-07-24T06:20:36;6.53;;;4.68;;
24337;SDS011;12457;50.832;4.346;2022-07-24T06:23:02;9.35;;;4.60;;
24337;SDS011;12457;50.832;4.346;2022-07-24T06:25:28;6.60;;;4.30;;
24337;SDS011;12457;50.832;4.346;2022-07-24T06:27:53;7.90;;;4.60;;
24337;SDS011;12457;50.832;4.346;2022-07-24T06:30:20;10.23;;;5.10;;
24337;SDS011;12457;50.832;4.346;2022-07-24T06:32:48;9.05;;;4.75;;
24337;SDS011;12457;50.832;4.346;2022-07-24T06:35:14;7.53;;;4.50;;
24337;SDS011;12457;50.832;4.346;2022-07-24T06:37:41;8.38;;;4.93;;
24337;SDS011;12457;50.832;4.346;2022-07-24T06:40:06;9.77;;;5.38;;
24337;SDS011;12457;50.832;4.346;2022-07-24T06:42:33;8.68;;;6.10;;
24337;SDS011;12457;50.832;4.346;2022-07-24T06:45:00;11.00;;;6.18;;
24337;SDS011;12457;50.832;4.346;2022-07-24T06:47:26;8.55;;;6.30;;
24337;SDS011;12457;50.832;4.346;2022-07-24T06:49:53;12.05;;;6.85;;
24337;SDS011;12457;50.832;4.346;2022-07-24T06:52:19;11.60;;;6.47;;
24337;SDS011;12457;50.832;4.346;2022-07-24T06:54:45;13.60;;;9.10;;
24337;SDS011;12457;50.832;4.346;2022-07-24T06:57:11;8.52;;;5.72;;
24337;SDS011;12457;50.832;4.346;2022-07-24T06:59:37;13.48;;;6.07;;
24337;SDS011;12457;50.832;4.346;2022-07-24T07:02:02;11.48;;;6.53;;
24337;SDS011;12457;50.832;4.346;2022-07-24T07:04:28;26.52;;;11.43;;
24337;SDS011;12457;50.832;4.346;2022-07-24T07:06:54;20.70;;;10.43;;
24337;SDS011;12457;50.832;4.346;2022-07-24T07:09:20;22.25;;;11.18;;
24337;SDS011;12457;50.832;4.346;2022-07-24T07:11:46;11.43;;;6.25;;
24337;SDS011;12457;50.832;4.346;2022-07-24T07:14:11;10.93;;;6.68;;
24337;SDS011;12457;50.832;4.346;2022-07-24T07:16:37;13.30;;;6.10;;
24337;SDS011;12457;50.832;4.346;2022-07-24T07:19:03;7.50;;;5.10;;
24337;SDS011;12457;50.832;4.346;2022-07-24T07:21:28;9.00;;;4.50;;
24337;SDS011;12457;50.832;4.346;2022-07-24T07:23:54;9.70;;;4.55;;
24337;SDS011;12457;50.832;4.346;2022-07-24T07:26:19;8.07;;;4.43;;
24337;SDS011;12457;50.832;4.346;2022-07-24T07:28:45;7.72;;;4.75;;
24337;SDS011;12457;50.832;4.346;2022-07-24T07:31:11;11.18;;;6.15;;
24337;SDS011;12457;50.832;4.346;2022-07-24T07:33:37;11.80;;;5.45;;
24337;SDS011;12457;50.832;4.346;2022-07-24T07:36:03;9.27;;;7.05;;
24337;SDS011;12457;50.832;4.346;2022-07-24T07:38:29;11.93;;;5.38;;
24337;SDS011;12457;50.832;4.346;2022-07-24T07:40:54;8.93;;;5.05;;
24337;SDS011;12457;50.832;4.346;2022-07-24T07:43:20;9.50;;;6.05;;
24337;SDS011;12457;50.832;4.346;2022-07-24T07:45:46;12.73;;;8.18;;
24337;SDS011;12457;50.832;4.346;2022-07-24T07:48:19;15.75;;;5.43;;
24337;SDS011;12457;50.832;4.346;2022-07-24T07:50:44;6.72;;;3.95;;
24337;SDS011;12457;50.832;4.346;2022-07-24T07:53:17;8.93;;;6.03;;
24337;SDS011;12457;50.832;4.346;2022-07-24T07:55:44;7.53;;;4.78;;
24337;SDS011;12457;50.832;4.346;2022-07-24T07:58:13;6.70;;;4.35;;
24337;SDS011;12457;50.832;4.346;2022-07-24T08:00:39;8.32;;;4.97;;
24337;SDS011;12457;50.832;4.346;2022-07-24T08:03:05;7.43;;;4.05;;
24337;SDS011;12457;50.832;4.346;2022-07-24T08:05:34;4.63;;;3.72;;
24337;SDS011;12457;50.832;4.346;2022-07-24T08:08:00;6.03;;;3.40;;
24337;SDS011;12457;50.832;4.346;2022-07-24T08:10:26;8.07;;;4.05;;
24337;SDS011;12457;50.832;4.346;2022-07-24T08:12:51;9.70;;;4.22;;
24337;SDS011;12457;50.832;4.346;2022-07-24T08:15:19;5.68;;;3.90;;
24337;SDS011;12457;50.832;4.346;2022-07-24T08:17:45;7.35;;;4.53;;
24337;SDS011;12457;50.832;4.346;2022-07-24T08:20:15;5.78;;;4.50;;
24337;SDS011;12457;50.832;4.346;2022-07-24T08:22:41;6.95;;;3.35;;
24337;SDS011;12457;50.832;4.346;2022-07-24T08:25:06;5.93;;;3.05;;
24337;SDS011;12457;50.832;4.346;2022-07-24T08:27:35;8.93;;;4.00;;
24337;SDS011;12457;50.832;4.346;2022-07-24T08:30:03;6.60;;;4.72;;
24337;SDS011;12457;50.832;4.346;2022-07-24T08:32:33;9.23;;;4.10;;
24337;SDS011;12457;50.832;4.346;2022-07-24T08:34:59;6.43;;;3.17;;
24337;SDS011;12457;50.832;4.346;2022-07-24T08:37:25;9.18;;;5.47;;
24337;SDS011;12457;50.832;4.346;2022-07-24T08:39:53;5.75;;;4.07;;
24337;SDS011;12457;50.832;4.346;2022-07-24T08:42:20;10.63;;;5.45;;
24337;SDS011;12457;50.832;4.346;2022-07-24T08:44:46;8.27;;;5.78;;
24337;SDS011;12457;50.832;4.346;2022-07-24T08:47:12;12.70;;;4.65;;
24337;SDS011;12457;50.832;4.346;2022-07-24T08:49:40;17.38;;;9.77;;
24337;SDS011;12457;50.832;4.346;2022-07-24T08:52:07;17.30;;;9.55;;
24337;SDS011;12457;50.832;4.346;2022-07-24T08:54:34;28.35;;;19.10;;
24337;SDS011;12457;50.832;4.346;2022-07-24T08:57:00;6.47;;;4.35;;
24337;SDS011;12457;50.832;4.346;2022-07-24T08:59:27;5.30;;;2.92;;
24337;SDS011;12457;50.832;4.346;2022-07-24T09:01:54;13.80;;;8.68;;
24337;SDS011;12457;50.832;4.346;2022-07-24T09:04:35;28.33;;;19.27;;
24337;SDS011;12457;50.832;4.346;2022-07-24T09:07:16;9.95;;;6.78;;
24337;SDS011;12457;50.832;4.346;2022-07-24T09:09:56;11.35;;;5.20;;
24337;SDS011;12457;50.832;4.346;2022-07-24T09:12:34;11.45;;;7.53;;
24337;SDS011;12457;50.832;4.346;2022-07-24T09:15:10;6.20;;;4.28;;
24337;SDS011;12457;50.832;4.346;2022-07-24T09:17:48;6.43;;;4.70;;
24337;SDS011;12457;50.832;4.346;2022-07-24T09:22:52;14.90;;;9.45;;
24337;SDS011;12457;50.832;4.346;2022-07-24T09:25:25;17.45;;;13.10;;
24337;SDS011;12457;50.832;4.346;2022-07-24T09:27:53;30.80;;;20.02;;
24337;SDS011;12457;50.832;4.346;2022-07-24T09:30:31;6.88;;;3.88;;
24337;SDS011;12457;50.832;4.346;2022-07-24T09:33:13;9.23;;;7.00;;
24337;SDS011;12457;50.832;4.346;2022-07-24T09:38:15;17.92;;;12.55;;
24337;SDS011;12457;50.832;4.346;2022-07-24T09:40:43;7.70;;;5.40;;
24337;SDS011;12457;50.832;4.346;2022-07-24T09:45:55;6.45;;;4.15;;
24337;SDS011;12457;50.832;4.346;2022-07-24T09:48:30;21.17;;;15.07;;
24337;SDS011;12457;50.832;4.346;2022-07-24T09:53:39;17.90;;;10.48;;
24337;SDS011;12457;50.832;4.346;2022-07-24T09:56:07;35.75;;;27.23;;
24337;SDS011;12457;50.832;4.346;2022-07-24T09:58:36;5.38;;;3.45;;
24337;SDS011;12457;50.832;4.346;2022-07-24T10:01:13;9.27;;;7.20;;
24337;SDS011;12457;50.832;4.346;2022-07-24T10:03:40;3.90;;;2.35;;
24337;SDS011;12457;50.832;4.346;2022-07-24T10:06:08;6.43;;;3.95;;
24337;SDS011;12457;50.832;4.346;2022-07-24T10:08:36;11.10;;;7.55;;
24337;SDS011;12457;50.832;4.346;2022-07-24T10:11:03;12.18;;;8.15;;
24337;SDS011;12457;50.832;4.346;2022-07-24T10:13:29;10.27;;;8.27;;
24337;SDS011;12457;50.832;4.346;2022-07-24T10:21:32;6.32;;;4.32;;
24337;SDS011;12457;50.832;4.346;2022-07-24T10:26:47;71.43;;;54.10;;
24337;SDS011;12457;50.832;4.346;2022-07-24T10:29:18;7.90;;;4.22;;
24337;SDS011;12457;50.832;4.346;2022-07-24T10:31:46;12.43;;;7.78;;
24337;SDS011;12457;50.832;4.346;2022-07-24T10:36:48;9.13;;;5.00;;
24337;SDS011;12457;50.832;4.346;2022-07-24T10:39:36;12.02;;;8.40;;
24337;SDS011;12457;50.832;4.346;2022-07-24T10:42:22;8.60;;;4.47;;
24337;SDS011;12457;50.832;4.346;2022-07-24T10:47:40;4.55;;;2.85;;
24337;SDS011;12457;50.832;4.346;2022-07-24T10:50:06;31.23;;;23.27;;
24337;SDS011;12457;50.832;4.346;2022-07-24T10:52:33;4.78;;;3.15;;
24337;SDS011;12457;50.832;4.346;2022-07-24T10:57:58;8.85;;;7.15;;
24337;SDS011;12457;50.832;4.346;2022-07-24T11:03:18;8.68;;;3.72;;
24337;SDS011;12457;50.832;4.346;2022-07-24T11:05:43;31.45;;;22.75;;
24337;SDS011;12457;50.832;4.346;2022-07-24T11:08:27;8.20;;;7.32;;
24337;SDS011;12457;50.832;4.346;2022-07-24T11:10:57;4.32;;;2.53;;
24337;SDS011;12457;50.832;4.346;2022-07-24T11:18:41;21.17;;;7.47;;
24337;SDS011;12457;50.832;4.346;2022-07-24T11:21:07;18.27;;;3.75;;
24337;SDS011;12457;50.832;4.346;2022-07-24T11:23:33;6.05;;;3.80;;
24337;SDS011;12457;50.832;4.346;2022-07-24T11:29:10;10.75;;;3.58;;
24337;SDS011;12457;50.832;4.346;2022-07-24T11:31:44;3.65;;;2.40;;
24337;SDS011;12457;50.832;4.346;2022-07-24T11:34:12;4.38;;;2.85;;
24337;SDS011;12457;50.832;4.346;2022-07-24T11:36:42;5.78;;;3.92;;
24337;SDS011;12457;50.832;4.346;2022-07-24T11:39:09;5.88;;;4.03;;
24337;SDS011;12457;50.832;4.346;2022-07-24T11:44:23;5.28;;;3.80;;
24337;SDS011;12457;50.832;4.346;2022-07-24T11:47:08;10.57;;;6.97;;
24337;SDS011;12457;50.832;4.346;2022-07-24T11:49:39;15.95;;;8.27;;
24337;SDS011;12457;50.832;4.346;2022-07-24T11:52:16;5.20;;;2.53;;
24337;SDS011;12457;50.832;4.346;2022-07-24T11:54:44;6.07;;;4.23;;
24337;SDS011;12457;50.832;4.346;2022-07-24T11:57:18;8.75;;;3.60;;
24337;SDS011;12457;50.832;4.346;2022-07-24T11:59:48;6.78;;;2.55;;
24337;SDS011;12457;50.832;4.346;2022-07-24T12:02:15;6.45;;;2.92;;
24337;SDS011;12457;50.832;4.346;2022-07-24T12:04:42;9.70;;;3.33;;
24337;SDS011;12457;50.832;4.346;2022-07-24T12:07:09;3.60;;;2.42;;
24337;SDS011;12457;50.832;4.346;2022-07-24T12:09:46;5.60;;;2.55;;
24337;SDS011;12457;50.832;4.346;2022-07-24T12:14:46;19.10;;;3.47;;
24337;SDS011;12457;50.832;4.346;2022-07-24T12:17:12;6.03;;;2.95;;
24337;SDS011;12457;50.832;4.346;2022-07-24T12:19:49;6.22;;;3.17;;
24337;SDS011;12457;50.832;4.346;2022-07-24T12:22:18;6.80;;;3.00;;
24337;SDS011;12457;50.832;4.346;2022-07-24T12:24:48;5.68;;;3.08;;
24337;SDS011;12457;50.832;4.346;2022-07-24T12:30:26;4.22;;;2.90;;
24337;SDS011;12457;50.832;4.346;2022-07-24T12:33:06;11.57;;;2.70;;
24337;SDS011;12457;50.832;4.346;2022-07-24T12:35:55;5.18;;;3.40;;
24337;SDS011;12457;50.832;4.346;2022-07-24T12:38:31;5.30;;;2.88;;
24337;SDS011;12457;50.832;4.346;2022-07-24T12:41:11;7.15;;;2.95;;
24337;SDS011;12457;50.832;4.346;2022-07-24T12:46:28;7.20;;;2.75;;
24337;SDS011;12457;50.832;4.346;2022-07-24T12:49:17;6.25;;;2.65;;
24337;SDS011;12457;50.832;4.346;2022-07-24T12:54:23;4.22;;;2.58;;
24337;SDS011;12457;50.832;4.346;2022-07-24T12:56:51;10.43;;;3.30;;
24337;SDS011;12457;50.832;4.346;2022-07-24T13:01:55;10.50;;;7.40;;
24337;SDS011;12457;50.832;4.346;2022-07-24T13:04:23;6.22;;;3.80;;
24337;SDS011;12457;50.832;4.346;2022-07-24T13:06:53;26.10;;;15.75;;
24337;SDS011;12457;50.832;4.346;2022-07-24T13:09:21;5.22;;;4.32;;
24337;SDS011;12457;50.832;4.346;2022-07-24T13:11:48;4.55;;;3.20;;
24337;SDS011;12457;50.832;4.346;2022-07-24T13:14:19;6.95;;;2.40;;
24337;SDS011;12457;50.832;4.346;2022-07-24T13:16:50;4.22;;;3.05;;
24337;SDS011;12457;50.832;4.346;2022-07-24T13:19:17;7.72;;;2.80;;
24337;SDS011;12457;50.832;4.346;2022-07-24T13:21:44;7.60;;;3.60;;
24337;SDS011;12457;50.832;4.346;2022-07-24T13:24:11;9.82;;;5.15;;
24337;SDS011;12457;50.832;4.346;2022-07-24T13:26:40;4.72;;;2.97;;
24337;SDS011;12457;50.832;4.346;2022-07-24T13:29:07;5.93;;;2.97;;
24337;SDS011;12457;50.832;4.346;2022-07-24T13:31:33;4.97;;;2.95;;
24337;SDS011;12457;50.832;4.346;2022-07-24T13:33:59;11.05;;;3.67;;
24337;SDS011;12457;50.832;4.346;2022-07-24T13:36:25;5.97;;;3.20;;
24337;SDS011;12457;50.832;4.346;2022-07-24T13:38:51;5.15;;;3.03;;
24337;SDS011;12457;50.832;4.346;2022-07-24T13:41:17;5.78;;;2.63;;
24337;SDS011;12457;50.832;4.346;2022-07-24T13:43:44;3.47;;;2.38;;
24337;SDS011;12457;50.832;4.346;2022-07-24T13:46:10;7.45;;;2.90;;
24337;SDS011;12457;50.832;4.346;2022-07-24T13:48:37;4.05;;;2.65;;
24337;SDS011;12457;50.832;4.346;2022-07-24T13:51:03;4.93;;;2.55;;
24337;SDS011;12457;50.832;4.346;2022-07-24T13:53:29;14.90;;;7.63;;
24337;SDS011;12457;50.832;4.346;2022-07-24T13:55:55;4.82;;;3.53;;
24337;SDS011;12457;50.832;4.346;2022-07-24T13:58:20;3.17;;;2.88;;
24337;SDS011;12457;50.832;4.346;2022-07-24T14:00:46;4.57;;;2.55;;
24337;SDS011;12457;50.832;4.346;2022-07-24T14:03:12;3.83;;;2.58;;
24337;SDS011;12457;50.832;4.346;2022-07-24T14:05:37;7.72;;;2.80;;
24337;SDS011;12457;50.832;4.346;2022-07-24T14:08:03;2.90;;;2.42;;
24337;SDS011;12457;50.832;4.346;2022-07-24T14:10:29;9.60;;;5.22;;
24337;SDS011;12457;50.832;4.346;2022-07-24T14:12:55;9.82;;;3.47;;
24337;SDS011;12457;50.832;4.346;2022-07-24T14:15:21;6.22;;;3.80;;
24337;SDS011;12457;50.832;4.346;2022-07-24T14:17:47;3.35;;;2.90;;
24337;SDS011;12457;50.832;4.346;2022-07-24T14:20:13;5.15;;;2.67;;
24337;SDS011;12457;50.832;4.346;2022-07-24T14:22:39;6.18;;;3.10;;
24337;SDS011;12457;50.832;4.346;2022-07-24T14:25:06;7.10;;;3.17;;
24337;SDS011;12457;50.832;4.346;2022-07-24T14:27:33;6.38;;;3.10;;
24337;SDS011;12457;50.832;4.346;2022-07-24T14:29:59;8.13;;;4.80;;
24337;SDS011;12457;50.832;4.346;2022-07-24T14:32:25;5.35;;;4.28;;
24337;SDS011;12457;50.832;4.346;2022-07-24T14:34:51;4.50;;;2.55;;
24337;SDS011;12457;50.832;4.346;2022-07-24T14:37:17;6.75;;;4.13;;
24337;SDS011;12457;50.832;4.346;2022-07-24T14:39:43;9.57;;;4.50;;
24337;SDS011;12457;50.832;4.346;2022-07-24T14:42:09;6.13;;;3.58;;
24337;SDS011;12457;50.832;4.346;2022-07-24T14:44:35;3.40;;;2.95;;
24337;SDS011;12457;50.832;4.346;2022-07-24T14:47:02;5.82;;;3.35;;
24337;SDS011;12457;50.832;4.346;2022-07-24T14:49:29;7.90;;;3.40;;
24337;SDS011;12457;50.832;4.346;2022-07-24T14:51:56;4.72;;;3.50;;
24337;SDS011;12457;50.832;4.346;2022-07-24T14:54:22;5.15;;;3.45;;
24337;SDS011;12457;50.832;4.346;2022-07-24T14:56:47;6.05;;;3.38;;
24337;SDS011;12457;50.832;4.346;2022-07-24T14:59:13;5.47;;;3.72;;
24337;SDS011;12457;50.832;4.346;2022-07-24T15:01:40;6.32;;;3.70;;
24337;SDS011;12457;50.832;4.346;2022-07-24T15:04:06;7.32;;;4.07;;
24337;SDS011;12457;50.832;4.346;2022-07-24T15:06:32;5.63;;;4.00;;
24337;SDS011;12457;50.832;4.346;2022-07-24T15:08:59;7.00;;;3.38;;
24337;SDS011;12457;50.832;4.346;2022-07-24T15:11:25;6.53;;;3.38;;
24337;SDS011;12457;50.832;4.346;2022-07-24T15:13:51;8.05;;;3.25;;
24337;SDS011;12457;50.832;4.346;2022-07-24T15:16:18;10.50;;;3.95;;
24337;SDS011;12457;50.832;4.346;2022-07-24T15:18:45;7.35;;;4.03;;
24337;SDS011;12457;50.832;4.346;2022-07-24T15:21:11;7.75;;;3.33;;
24337;SDS011;12457;50.832;4.346;2022-07-24T15:23:36;6.28;;;3.25;;
24337;SDS011;12457;50.832;4.346;2022-07-24T15:26:05;5.40;;;3.53;;
24337;SDS011;12457;50.832;4.346;2022-07-24T15:28:31;5.68;;;3.40;;
24337;SDS011;12457;50.832;4.346;2022-07-24T15:30:57;7.57;;;3.65;;